Time,TemperatureF,DewpointF,PressureIn,WindDirection,WindDirectionDegrees,WindSpeedMPH,WindSpeedGustMPH,Humidity,HourlyPrecipIn,Conditions,Clouds,dailyrainin,SoftwareType,DateUTC
2013-02-28 00:00:00,38.7,36.3,29.55,South,188,0.0,0.0,91,0.00,CLR,,1.02,WeatherDisplay:10.37,2013-02-28 05:00:00,
2013-02-28 00:01:00,38.7,36.3,29.55,WNW,292,3.5,0.0,91,0.00,RA,,0.00,WeatherDisplay:10.37,2013-02-28 05:01:00,
2013-02-28 00:06:00,38.7,36.3,29.55,NNE,31,4.0,4.0,91,0.00,RA,,0.00,WeatherDisplay:10.37,2013-02-28 05:06:00,
2013-02-28 00:11:00,38.7,36.3,29.55,SW,233,4.6,4.6,91,0.00,CLR,,0.00,WeatherDisplay:10.37,2013-02-28 05:11:00,
2013-02-28 00:16:00,38.7,36.3,29.55,SW,228,3.5,0.0,91,0.00,CLR,,0.00,WeatherDisplay:10.37,2013-02-28 05:16:00,
2013-02-28 00:21:00,38.8,36.7,29.55,West,261,3.5,0.0,92,0.00,CLR,,0.00,WeatherDisplay:10.37,2013-02-28 05:21:00,
2013-02-28 00:26:00,38.7,36.3,29.55,West,278,2.3,2.3,91,0.00,CLR,,0.00,WeatherDisplay:10.37,2013-02-28 05:26:00,
2013-02-28 00:31:00,38.7,36.3,29.55,NW,321,5.8,5.8,91,0.00,CLR,,0.00,WeatherDisplay:10.37,2013-02-28 05:31:00,
2013-02-28 00:36:00,38.7,36.3,29.55,NNE,16,3.5,3.5,91,0.00,CLR,,0.00,WeatherDisplay:10.37,2013-02-28 05:36:00,
2013-02-28 00:41:00,38.7,36.3,29.57,North,8,0.0,0.0,91,0.00,CLR,,0.00,WeatherDisplay:10.37,2013-02-28 05:41:00,
2013-02-28 00:46:00,38.5,36.1,29.57,NNE,27,2.3,0.0,91,0.00,CLR,,0.00,WeatherDisplay:10.37,2013-02-28 05:46:00,
2013-02-28 00:51:00,38.5,36.1,29.57,West,279,2.3,0.0,91,0.00,CLR,,0.00,WeatherDisplay:10.37,2013-02-28 05:51:00,
2013-02-28 00:56:00,38.3,35.9,29.57,North,357,3.5,3.5,91,0.00,CLR,,0.00,WeatherDisplay:10.37,2013-02-28 05:56:00,
2013-02-28 01:01:00,38.1,35.4,29.57,North,357,0.0,0.0,90,0.00,CLR,,0.00,WeatherDisplay:10.37,2013-02-28 06:01:00,
2013-02-28 01:06:00,38.1,35.4,29.57,NNW,336,0.0,0.0,90,0.00,CLR,,0.00,WeatherDisplay:10.37,2013-02-28 06:06:00,
2013-02-28 01:11:00,37.9,35.3,29.55,WNW,298,3.5,3.5,90,0.00,CLR,,0.00,WeatherDisplay:10.37,2013-02-28 06:11:00,
2013-02-28 01:16:00,37.9,35.3,29.55,WNW,287,3.5,3.5,90,0.00,CLR,,0.00,WeatherDisplay:10.37,2013-02-28 06:16:00,
2013-02-28 01:21:00,37.9,35.3,29.55,WNW,287,0.0,0.0,90,0.00,CLR,,0.00,WeatherDisplay:10.37,2013-02-28 06:21:00,
2013-02-28 01:26:00,37.9,35.3,29.55,NNE,23,3.5,0.0,90,0.00,CLR,,0.00,WeatherDisplay:10.37,2013-02-28 06:26:00,
2013-02-28 01:31:00,37.8,35.1,29.55,NNE,24,0.0,0.0,90,0.00,CLR,,0.00,WeatherDisplay:10.37,2013-02-28 06:31:00,
2013-02-28 01:36:00,37.8,35.1,29.55,NW,314,3.5,0.0,90,0.00,CLR,,0.00,WeatherDisplay:10.37,2013-02-28 06:36:00,
2013-02-28 01:41:00,37.8,35.1,29.55,NW,314,0.0,0.0,90,0.00,CLR,,0.00,WeatherDisplay:10.37,2013-02-28 06:41:00,
2013-02-28 01:46:00,37.6,34.9,29.55,NW,314,0.0,0.0,90,0.00,CLR,,0.00,WeatherDisplay:10.37,2013-02-28 06:46:00,
2013-02-28 01:51:00,37.6,34.6,29.55,NW,314,0.0,0.0,89,0.00,CLR,,0.00,WeatherDisplay:10.37,2013-02-28 06:51:00,
2013-02-28 01:56:00,37.6,34.6,29.55,NW,314,2.7,2.7,89,0.04,RA,,0.04,WeatherDisplay:10.37,2013-02-28 06:56:00,
2013-02-28 02:01:00,37.6,34.6,29.55,NW,314,0.0,0.0,89,0.04,RA,,0.04,WeatherDisplay:10.37,2013-02-28 07:01:00,
2013-02-28 02:06:00,37.6,34.6,29.55,NW,314,0.0,0.0,89,0.04,CLR,,0.04,WeatherDisplay:10.37,2013-02-28 07:06:00,
2013-02-28 02:11:00,37.6,34.6,29.55,NW,314,3.5,0.0,89,0.04,CLR,,0.04,WeatherDisplay:10.37,2013-02-28 07:11:00,
2013-02-28 02:16:00,37.6,34.6,29.55,NW,314,2.3,0.0,89,0.04,CLR,,0.04,WeatherDisplay:10.37,2013-02-28 07:16:00,
2013-02-28 02:21:00,37.6,34.6,29.55,NW,314,0.0,0.0,89,0.04,CLR,,0.04,WeatherDisplay:10.37,2013-02-28 07:21:00,
2013-02-28 02:26:00,37.4,34.5,29.55,NW,314,0.0,0.0,89,0.04,CLR,,0.04,WeatherDisplay:10.37,2013-02-28 07:26:00,
2013-02-28 02:31:00,37.4,34.5,29.55,NW,314,3.5,0.0,89,0.04,CLR,,0.04,WeatherDisplay:10.37,2013-02-28 07:31:00,
2013-02-28 02:36:00,37.4,34.5,29.55,NW,314,0.0,0.0,89,0.04,CLR,,0.04,WeatherDisplay:10.37,2013-02-28 07:36:00,
2013-02-28 02:41:00,37.4,34.5,29.55,NW,314,0.0,0.0,89,0.04,CLR,,0.04,WeatherDisplay:10.37,2013-02-28 07:41:00,
2013-02-28 02:46:00,37.4,34.5,29.55,NW,314,0.0,0.0,89,0.04,CLR,,0.04,WeatherDisplay:10.37,2013-02-28 07:46:00,
2013-02-28 02:51:00,37.4,34.5,29.55,NW,314,0.0,0.0,89,0.04,CLR,,0.04,WeatherDisplay:10.37,2013-02-28 07:51:00,
2013-02-28 02:56:00,37.4,34.5,29.57,NW,314,0.0,0.0,89,0.00,CLR,,0.04,WeatherDisplay:10.37,2013-02-28 07:56:00,
2013-02-28 03:01:00,37.4,34.5,29.57,NW,314,0.0,0.0,89,0.00,CLR,,0.04,WeatherDisplay:10.37,2013-02-28 08:01:00,
2013-02-28 03:06:00,37.4,34.5,29.57,NW,314,0.0,0.0,89,0.00,CLR,,0.04,WeatherDisplay:10.37,2013-02-28 08:06:00,
2013-02-28 03:11:00,37.4,34.5,29.57,NW,314,0.0,0.0,89,0.00,CLR,,0.04,WeatherDisplay:10.37,2013-02-28 08:11:00,
2013-02-28 03:16:00,37.6,34.6,29.57,NW,314,0.0,0.0,89,0.00,CLR,,0.04,WeatherDisplay:10.37,2013-02-28 08:16:00,
2013-02-28 03:21:00,37.6,34.6,29.57,NW,314,0.0,0.0,89,0.00,CLR,,0.04,WeatherDisplay:10.37,2013-02-28 08:21:00,
2013-02-28 03:26:00,37.6,34.6,29.57,NW,314,0.0,0.0,89,0.00,CLR,,0.04,WeatherDisplay:10.37,2013-02-28 08:26:00,
2013-02-28 03:31:00,37.4,34.5,29.57,NW,314,0.0,0.0,89,0.00,CLR,,0.04,WeatherDisplay:10.37,2013-02-28 08:31:00,
2013-02-28 03:36:00,37.4,34.5,29.57,NW,314,3.5,0.0,89,0.00,CLR,,0.04,WeatherDisplay:10.37,2013-02-28 08:36:00,
2013-02-28 03:41:00,37.4,34.5,29.57,NW,314,0.0,0.0,89,0.00,CLR,,0.04,WeatherDisplay:10.37,2013-02-28 08:41:00,
2013-02-28 03:46:00,37.4,34.5,29.57,NW,314,0.0,0.0,89,0.00,CLR,,0.04,WeatherDisplay:10.37,2013-02-28 08:46:00,
2013-02-28 03:51:00,37.2,34.3,29.57,NW,314,0.0,0.0,89,0.00,CLR,,0.04,WeatherDisplay:10.37,2013-02-28 08:51:00,
2013-02-28 03:56:00,37.2,34.3,29.57,NW,314,0.0,0.0,89,0.00,CLR,,0.04,WeatherDisplay:10.37,2013-02-28 08:56:00,
2013-02-28 04:01:00,37.0,34.1,29.57,NW,314,0.0,0.0,89,0.00,CLR,,0.04,WeatherDisplay:10.37,2013-02-28 09:01:00,
2013-02-28 04:06:00,37.0,34.1,29.57,NW,314,0.0,0.0,89,0.00,CLR,,0.04,WeatherDisplay:10.37,2013-02-28 09:06:00,
2013-02-28 04:11:00,37.0,34.1,29.57,NW,314,0.0,0.0,89,0.00,CLR,,0.04,WeatherDisplay:10.37,2013-02-28 09:11:00,
2013-02-28 04:16:00,37.0,34.1,29.57,NW,314,0.0,0.0,89,0.00,CLR,,0.04,WeatherDisplay:10.37,2013-02-28 09:16:00,
2013-02-28 04:21:00,37.0,34.1,29.57,NW,314,0.0,0.0,89,0.00,CLR,,0.04,WeatherDisplay:10.37,2013-02-28 09:21:00,
2013-02-28 04:26:00,37.0,34.1,29.57,NW,314,0.0,0.0,89,0.00,CLR,,0.04,WeatherDisplay:10.37,2013-02-28 09:26:00,
2013-02-28 04:31:00,36.9,33.9,29.57,NW,314,0.0,0.0,89,0.00,CLR,,0.04,WeatherDisplay:10.37,2013-02-28 09:31:00,
2013-02-28 04:36:00,36.9,33.9,29.57,NW,314,0.0,0.0,89,0.00,CLR,,0.04,WeatherDisplay:10.37,2013-02-28 09:36:00,
2013-02-28 04:41:00,36.9,33.9,29.57,NW,314,0.0,0.0,89,0.00,CLR,,0.04,WeatherDisplay:10.37,2013-02-28 09:41:00,
2013-02-28 04:46:00,36.9,33.9,29.57,NW,314,0.0,0.0,89,0.00,CLR,,0.04,WeatherDisplay:10.37,2013-02-28 09:46:00,
2013-02-28 04:51:00,36.9,33.9,29.57,NW,314,0.0,0.0,89,0.00,CLR,,0.04,WeatherDisplay:10.37,2013-02-28 09:51:00,
2013-02-28 04:56:00,36.9,33.9,29.57,NW,314,0.0,0.0,89,0.00,CLR,,0.04,WeatherDisplay:10.37,2013-02-28 09:56:00,
2013-02-28 05:01:00,36.9,33.9,29.57,NW,314,0.0,0.0,89,0.00,CLR,,0.04,WeatherDisplay:10.37,2013-02-28 10:01:00,
2013-02-28 05:06:00,36.9,33.9,29.57,NW,314,0.0,0.0,89,0.00,CLR,,0.04,WeatherDisplay:10.37,2013-02-28 10:06:00,
2013-02-28 05:11:00,36.9,33.9,29.57,NW,314,0.0,0.0,89,0.00,CLR,,0.04,WeatherDisplay:10.37,2013-02-28 10:11:00,
2013-02-28 05:16:00,36.9,33.9,29.57,NW,314,0.0,0.0,89,0.00,CLR,,0.04,WeatherDisplay:10.37,2013-02-28 10:16:00,
2013-02-28 05:21:00,36.9,33.9,29.57,NW,314,0.0,0.0,89,0.00,CLR,,0.04,WeatherDisplay:10.37,2013-02-28 10:21:00,
2013-02-28 05:26:00,36.9,33.9,29.60,NW,314,0.0,0.0,89,0.00,CLR,,0.04,WeatherDisplay:10.37,2013-02-28 10:26:00,
2013-02-28 05:31:00,36.9,33.9,29.60,NW,314,3.5,0.0,89,0.00,CLR,,0.04,WeatherDisplay:10.37,2013-02-28 10:31:00,
2013-02-28 05:36:00,36.9,33.9,29.60,NW,314,2.2,0.0,89,0.00,CLR,,0.04,WeatherDisplay:10.37,2013-02-28 10:36:00,
2013-02-28 05:41:00,36.9,33.9,29.60,NW,314,0.0,0.0,89,0.00,CLR,,0.04,WeatherDisplay:10.37,2013-02-28 10:41:00,
2013-02-28 05:46:00,36.9,33.9,29.60,NW,314,0.0,0.0,89,0.00,CLR,,0.04,WeatherDisplay:10.37,2013-02-28 10:46:00,
2013-02-28 05:51:00,36.9,33.9,29.60,NW,314,0.0,0.0,89,0.00,CLR,,0.04,WeatherDisplay:10.37,2013-02-28 10:51:00,
2013-02-28 05:56:00,36.9,33.9,29.60,NW,314,0.0,0.0,89,0.00,CLR,,0.04,WeatherDisplay:10.37,2013-02-28 10:56:00,
2013-02-28 06:01:00,36.9,33.6,29.60,NW,314,0.0,0.0,88,0.00,CLR,,0.04,WeatherDisplay:10.37,2013-02-28 11:01:00,
2013-02-28 06:06:00,36.9,33.6,29.60,NW,314,0.0,0.0,88,0.00,CLR,,0.04,WeatherDisplay:10.37,2013-02-28 11:06:00,
2013-02-28 06:11:00,36.9,33.6,29.60,NW,314,0.0,0.0,88,0.00,CLR,,0.04,WeatherDisplay:10.37,2013-02-28 11:11:00,
2013-02-28 06:16:00,36.9,33.6,29.60,NW,314,0.0,0.0,88,0.00,CLR,,0.04,WeatherDisplay:10.37,2013-02-28 11:16:00,
2013-02-28 06:21:00,36.9,33.6,29.60,NW,314,2.3,0.0,88,0.00,CLR,,0.04,WeatherDisplay:10.37,2013-02-28 11:21:00,
2013-02-28 06:26:00,36.7,33.5,29.60,NW,314,3.5,0.0,88,0.00,CLR,,0.04,WeatherDisplay:10.37,2013-02-28 11:26:00,
2013-02-28 06:31:00,36.7,33.2,29.60,NW,314,0.0,0.0,87,0.00,CLR,,0.04,WeatherDisplay:10.37,2013-02-28 11:31:00,
2013-02-28 06:36:00,36.3,32.5,29.60,NW,314,0.0,0.0,86,0.00,CLR,,0.04,WeatherDisplay:10.37,2013-02-28 11:36:00,
2013-02-28 06:41:00,36.1,32.1,29.60,NW,314,0.0,0.0,85,0.00,CLR,,0.04,WeatherDisplay:10.37,2013-02-28 11:41:00,
2013-02-28 06:46:00,36.1,31.8,29.60,NW,314,0.0,0.0,84,0.00,CLR,,0.04,WeatherDisplay:10.37,2013-02-28 11:46:00,
2013-02-28 06:51:00,36.1,31.8,29.60,NW,314,0.0,0.0,84,0.00,CLR,,0.04,WeatherDisplay:10.37,2013-02-28 11:51:00,
2013-02-28 06:56:00,36.3,31.9,29.60,NW,314,0.0,0.0,84,0.00,CLR,,0.04,WeatherDisplay:10.37,2013-02-28 11:56:00,
2013-02-28 07:01:00,36.3,31.9,29.60,NW,314,0.0,0.0,84,0.00,CLR,,0.04,WeatherDisplay:10.37,2013-02-28 12:01:00,
2013-02-28 07:06:00,36.1,31.8,29.60,NW,314,0.0,0.0,84,0.00,CLR,,0.04,WeatherDisplay:10.37,2013-02-28 12:06:00,
2013-02-28 07:11:00,36.5,32.1,29.60,NW,314,0.0,0.0,84,0.00,CLR,,0.04,WeatherDisplay:10.37,2013-02-28 12:11:00,
2013-02-28 07:16:00,36.7,32.6,29.60,NW,314,0.0,0.0,85,0.00,CLR,,0.04,WeatherDisplay:10.37,2013-02-28 12:16:00,
2013-02-28 07:21:00,36.9,32.8,29.60,NW,314,0.0,0.0,85,0.00,CLR,,0.04,WeatherDisplay:10.37,2013-02-28 12:21:00,
2013-02-28 07:26:00,37.0,33.2,29.60,NW,314,0.0,0.0,86,0.00,CLR,,0.04,WeatherDisplay:10.37,2013-02-28 12:26:00,
2013-02-28 07:31:00,37.2,33.4,29.60,NW,314,0.0,0.0,86,0.00,CLR,,0.04,WeatherDisplay:10.37,2013-02-28 12:31:00,
2013-02-28 07:36:00,37.4,33.3,29.60,NW,314,0.0,0.0,85,0.00,CLR,,0.04,WeatherDisplay:10.37,2013-02-28 12:36:00,
2013-02-28 07:41:00,37.9,33.5,29.60,NW,314,0.0,0.0,84,0.00,CLR,,0.04,WeatherDisplay:10.37,2013-02-28 12:41:00,
2013-02-28 07:46:00,38.5,34.4,29.60,NW,314,0.0,0.0,85,0.00,CLR,,0.04,WeatherDisplay:10.37,2013-02-28 12:46:00,
2013-02-28 07:51:00,39.9,36.4,29.60,NW,314,0.0,0.0,87,0.00,CLR,,0.04,WeatherDisplay:10.37,2013-02-28 12:51:00,
2013-02-28 07:56:00,39.9,36.4,29.60,NW,314,0.0,2.2,87,0.00,CLR,,0.04,WeatherDisplay:10.37,2013-02-28 12:56:00,
2013-02-28 08:01:00,40.3,35.5,29.60,NW,314,0.0,0.0,83,0.00,CLR,,0.04,WeatherDisplay:10.37,2013-02-28 13:01:00,
2013-02-28 08:06:00,40.6,35.0,29.60,NW,314,0.0,0.0,80,0.00,CLR,,0.04,WeatherDisplay:10.37,2013-02-28 13:06:00,
2013-02-28 08:11:00,37.6,15.4,29.60,NW,314,2.3,0.0,40,0.00,CLR,,0.04,WeatherDisplay:10.37,2013-02-28 13:11:00,
2013-02-28 08:16:00,37.4,20.0,29.60,NW,314,0.0,0.0,49,0.00,CLR,,0.04,WeatherDisplay:10.37,2013-02-28 13:16:00,
2013-02-28 08:21:00,37.6,21.1,29.60,NW,314,0.0,0.0,51,0.00,CLR,,0.04,WeatherDisplay:10.37,2013-02-28 13:21:00,
2013-02-28 08:26:00,37.9,21.9,29.60,NW,314,0.0,0.0,52,0.00,CLR,,0.04,WeatherDisplay:10.37,2013-02-28 13:26:00,
2013-02-28 08:31:00,37.0,19.6,29.60,NW,314,3.5,0.0,49,0.00,CLR,,0.04,WeatherDisplay:10.37,2013-02-28 13:31:00,
2013-02-28 08:36:00,37.6,20.1,29.60,NW,314,0.0,0.0,49,0.00,CLR,,0.04,WeatherDisplay:10.37,2013-02-28 13:36:00,
2013-02-28 08:41:00,37.6,18.1,29.60,North,7,3.5,3.5,45,0.00,CLR,,0.04,WeatherDisplay:10.37,2013-02-28 13:41:00,
2013-02-28 08:46:00,37.8,15.6,29.60,North,6,3.5,0.0,40,0.00,CLR,,0.04,WeatherDisplay:10.37,2013-02-28 13:46:00,
2013-02-28 08:51:00,37.9,15.1,29.60,North,6,0.0,0.0,39,0.00,CLR,,0.04,WeatherDisplay:10.37,2013-02-28 13:51:00,
2013-02-28 08:56:00,37.6,11.7,29.60,North,7,2.3,0.0,34,0.00,CLR,,0.04,WeatherDisplay:10.37,2013-02-28 13:56:00,
2013-02-28 09:01:00,37.6,9.6,29.60,North,6,2.3,0.0,31,0.00,CLR,,0.04,WeatherDisplay:10.37,2013-02-28 14:01:00,
2013-02-28 09:06:00,37.4,9.5,29.60,North,6,2.3,0.0,31,0.00,CLR,,0.04,WeatherDisplay:10.37,2013-02-28 14:06:00,
2013-02-28 09:11:00,38.3,10.3,29.60,North,6,3.5,0.0,31,0.00,CLR,,0.04,WeatherDisplay:10.37,2013-02-28 14:11:00,
2013-02-28 09:16:00,40.3,12.0,29.60,North,7,0.0,0.0,31,0.00,CLR,,0.04,WeatherDisplay:10.37,2013-02-28 14:16:00,
2013-02-28 09:21:00,41.0,12.6,29.60,North,7,2.3,0.0,31,0.00,CLR,,0.04,WeatherDisplay:10.37,2013-02-28 14:21:00,
2013-02-28 09:26:00,40.5,12.2,29.60,SE,131,0.0,0.0,31,0.00,CLR,,0.04,WeatherDisplay:10.37,2013-02-28 14:26:00,
2013-02-28 09:31:00,38.8,10.7,29.60,West,261,0.0,0.0,31,0.00,CLR,,0.04,WeatherDisplay:10.37,2013-02-28 14:31:00,
2013-02-28 09:36:00,39.2,11.0,29.60,West,261,0.0,0.0,31,0.00,CLR,,0.04,WeatherDisplay:10.37,2013-02-28 14:36:00,
2013-02-28 09:41:00,38.8,10.7,29.60,West,261,2.3,0.0,31,0.00,CLR,,0.04,WeatherDisplay:10.37,2013-02-28 14:41:00,
2013-02-28 09:46:00,38.8,10.7,29.60,NW,325,0.0,0.0,31,0.00,CLR,,0.04,WeatherDisplay:10.37,2013-02-28 14:46:00,
2013-02-28 09:51:00,39.2,11.0,29.60,NW,325,0.0,0.0,31,0.00,CLR,,0.04,WeatherDisplay:10.37,2013-02-28 14:51:00,
2013-02-28 09:56:00,39.2,11.0,29.60,SSW,197,2.3,0.0,31,0.00,CLR,,0.04,WeatherDisplay:10.37,2013-02-28 14:56:00,
2013-02-28 10:01:00,39.7,11.5,29.60,SSW,198,0.0,0.0,31,0.00,CLR,,0.04,WeatherDisplay:10.37,2013-02-28 15:01:00,
2013-02-28 10:06:00,39.9,11.7,29.60,South,190,2.3,0.0,31,0.00,CLR,,0.04,WeatherDisplay:10.37,2013-02-28 15:06:00,
2013-02-28 10:11:00,39.7,11.5,29.60,WNW,296,2.3,0.0,31,0.00,CLR,,0.04,WeatherDisplay:10.37,2013-02-28 15:11:00,
2013-02-28 10:16:00,38.8,10.7,29.60,WNW,295,0.0,0.0,31,0.00,CLR,,0.04,WeatherDisplay:10.37,2013-02-28 15:16:00,
2013-02-28 10:21:00,39.2,11.0,29.60,WNW,296,3.6,3.6,31,0.00,CLR,,0.04,WeatherDisplay:10.37,2013-02-28 15:21:00,
2013-02-28 10:26:00,39.6,11.4,29.60,WNW,296,0.0,0.0,31,0.00,CLR,,0.04,WeatherDisplay:10.37,2013-02-28 15:26:00,
2013-02-28 10:31:00,40.1,11.8,29.60,NNE,25,3.5,0.0,31,0.00,CLR,,0.04,WeatherDisplay:10.37,2013-02-28 15:31:00,
2013-02-28 10:36:00,40.5,12.2,29.60,WNW,292,3.5,0.0,31,0.00,CLR,,0.04,WeatherDisplay:10.37,2013-02-28 15:36:00,
2013-02-28 10:41:00,40.3,12.0,29.60,NNE,14,3.5,0.0,31,0.00,CLR,,0.04,WeatherDisplay:10.37,2013-02-28 15:41:00,
2013-02-28 10:46:00,41.0,12.6,29.60,NNE,14,0.0,0.0,31,0.00,CLR,,0.04,WeatherDisplay:10.37,2013-02-28 15:46:00,
2013-02-28 10:51:00,40.5,12.2,29.60,NNE,14,2.3,0.0,31,0.00,CLR,,0.04,WeatherDisplay:10.37,2013-02-28 15:51:00,
2013-02-28 10:56:00,40.6,12.3,29.60,NNE,14,0.0,0.0,31,0.00,CLR,,0.04,WeatherDisplay:10.37,2013-02-28 15:56:00,
2013-02-28 11:01:00,40.3,12.0,29.60,West,263,2.3,2.3,31,0.00,CLR,,0.04,WeatherDisplay:10.37,2013-02-28 16:01:00,
2013-02-28 11:06:00,41.2,12.8,29.60,West,263,0.0,0.0,31,0.00,CLR,,0.04,WeatherDisplay:10.37,2013-02-28 16:06:00,
2013-02-28 11:11:00,41.5,13.1,29.60,West,263,0.0,0.0,31,0.00,CLR,,0.04,WeatherDisplay:10.37,2013-02-28 16:11:00,
2013-02-28 11:16:00,41.0,12.6,29.60,West,263,2.3,0.0,31,0.00,CLR,,0.04,WeatherDisplay:10.37,2013-02-28 16:16:00,
2013-02-28 11:21:00,41.0,12.6,29.60,West,263,2.3,0.0,31,0.00,CLR,,0.04,WeatherDisplay:10.37,2013-02-28 16:21:00,
2013-02-28 11:26:00,42.8,13.5,29.60,NNW,341,0.0,0.0,30,0.00,CLR,,0.04,WeatherDisplay:10.37,2013-02-28 16:26:00,
2013-02-28 11:31:00,42.8,11.9,29.60,NNW,341,3.1,3.1,28,0.00,CLR,,0.04,WeatherDisplay:10.37,2013-02-28 16:31:00,
2013-02-28 11:36:00,41.4,10.6,29.60,NNW,333,0.0,0.0,28,0.00,CLR,,0.04,WeatherDisplay:10.37,2013-02-28 16:36:00,
2013-02-28 11:41:00,41.9,11.1,29.60,NNW,333,2.3,0.0,28,0.00,CLR,,0.04,WeatherDisplay:10.37,2013-02-28 16:41:00,
2013-02-28 11:46:00,43.9,12.8,29.57,SW,232,2.3,0.0,28,0.00,CLR,,0.04,WeatherDisplay:10.37,2013-02-28 16:46:00,
2013-02-28 11:51:00,45.9,13.7,29.57,South,191,2.3,0.0,27,0.00,CLR,,0.04,WeatherDisplay:10.37,2013-02-28 16:51:00,
2013-02-28 11:56:00,45.3,13.2,29.57,WNW,283,3.5,3.5,27,0.00,CLR,,0.04,WeatherDisplay:10.37,2013-02-28 16:56:00,
2013-02-28 12:01:00,45.1,13.1,29.57,NNE,27,3.5,0.0,27,0.00,CLR,,0.04,WeatherDisplay:10.37,2013-02-28 17:01:00,
2013-02-28 12:06:00,43.9,12.8,29.57,NNE,27,3.5,3.5,28,0.00,CLR,,0.04,WeatherDisplay:10.37,2013-02-28 17:06:00,
2013-02-28 12:11:00,43.3,12.4,29.57,NW,314,3.5,0.0,28,0.00,CLR,,0.04,WeatherDisplay:10.37,2013-02-28 17:11:00,
2013-02-28 12:16:00,44.2,13.1,29.57,NW,314,0.0,0.0,28,0.00,CLR,,0.04,WeatherDisplay:10.37,2013-02-28 17:16:00,
2013-02-28 12:21:00,44.2,13.1,29.57,NW,314,0.0,0.0,28,0.00,CLR,,0.04,WeatherDisplay:10.37,2013-02-28 17:21:00,
2013-02-28 12:26:00,44.6,12.6,29.57,NW,314,0.0,0.0,27,0.00,CLR,,0.04,WeatherDisplay:10.37,2013-02-28 17:26:00,
2013-02-28 12:31:00,44.8,12.8,29.57,NW,314,0.0,0.0,27,0.00,CLR,,0.04,WeatherDisplay:10.37,2013-02-28 17:31:00,
2013-02-28 12:36:00,45.9,13.7,29.57,NW,314,0.0,0.0,27,0.00,CLR,,0.04,WeatherDisplay:10.37,2013-02-28 17:36:00,
2013-02-28 12:41:00,46.0,13.9,29.57,NW,314,0.0,0.0,27,0.00,CLR,,0.04,WeatherDisplay:10.37,2013-02-28 17:41:00,
2013-02-28 12:46:00,45.7,13.6,29.57,NW,314,0.0,0.0,27,0.00,CLR,,0.04,WeatherDisplay:10.37,2013-02-28 17:46:00,
2013-02-28 12:51:00,46.2,14.0,29.57,NW,314,2.3,0.0,27,0.00,CLR,,0.04,WeatherDisplay:10.37,2013-02-28 17:51:00,
2013-02-28 12:56:00,49.1,15.6,29.57,NW,314,0.0,0.0,26,0.00,CLR,,0.04,WeatherDisplay:10.37,2013-02-28 17:56:00,
2013-02-28 13:01:00,46.4,14.2,29.57,NW,314,3.5,0.0,27,0.00,CLR,,0.04,WeatherDisplay:10.37,2013-02-28 18:01:00,
2013-02-28 13:06:00,46.9,14.6,29.57,NNE,16,3.5,0.0,27,0.00,CLR,,0.04,WeatherDisplay:10.37,2013-02-28 18:06:00,
2013-02-28 13:11:00,46.4,14.2,29.55,NW,313,0.0,0.0,27,0.00,CLR,,0.04,WeatherDisplay:10.37,2013-02-28 18:11:00,
2013-02-28 13:16:00,45.1,13.1,29.55,NW,313,3.5,3.5,27,0.00,CLR,,0.04,WeatherDisplay:10.37,2013-02-28 18:16:00,
2013-02-28 13:21:00,45.5,13.4,29.55,NW,313,3.5,3.5,27,0.00,CLR,,0.04,WeatherDisplay:10.37,2013-02-28 18:21:00,
2013-02-28 13:26:00,45.5,13.4,29.55,NW,313,0.0,0.0,27,0.00,CLR,,0.04,WeatherDisplay:10.37,2013-02-28 18:26:00,
2013-02-28 13:31:00,45.3,13.2,29.55,NW,313,3.5,3.5,27,0.00,CLR,,0.04,WeatherDisplay:10.37,2013-02-28 18:31:00,
2013-02-28 13:36:00,46.2,14.0,29.55,NW,313,3.5,3.5,27,0.00,CLR,,0.04,WeatherDisplay:10.37,2013-02-28 18:36:00,
2013-02-28 13:41:00,45.3,15.7,29.55,NW,313,3.5,3.5,30,0.00,CLR,,0.04,WeatherDisplay:10.37,2013-02-28 18:41:00,
2013-02-28 13:46:00,46.2,14.0,29.55,NW,313,3.5,3.5,27,0.00,CLR,,0.04,WeatherDisplay:10.37,2013-02-28 18:46:00,
2013-02-28 13:51:00,46.6,14.3,29.55,SSW,212,0.0,0.0,27,0.00,CLR,,0.04,WeatherDisplay:10.37,2013-02-28 18:51:00,
2013-02-28 13:56:00,47.1,14.8,29.55,WNW,298,3.5,3.5,27,0.00,CLR,,0.04,WeatherDisplay:10.37,2013-02-28 18:56:00,
2013-02-28 14:01:00,45.9,13.7,29.55,SW,236,3.5,3.5,27,0.00,CLR,,0.04,WeatherDisplay:10.37,2013-02-28 19:01:00,
2013-02-28 14:06:00,46.0,13.9,29.55,NNE,24,0.0,0.0,27,0.00,CLR,,0.04,WeatherDisplay:10.37,2013-02-28 19:06:00,
2013-02-28 14:11:00,46.4,14.2,29.55,West,260,4.9,4.9,27,0.00,CLR,,0.04,WeatherDisplay:10.37,2013-02-28 19:11:00,
2013-02-28 14:16:00,45.9,13.7,29.55,WNW,301,5.8,5.8,27,0.00,CLR,,0.04,WeatherDisplay:10.37,2013-02-28 19:16:00,
2013-02-28 14:21:00,45.9,13.7,29.55,West,266,3.5,3.5,27,0.00,CLR,,0.04,WeatherDisplay:10.37,2013-02-28 19:21:00,
2013-02-28 14:26:00,46.4,14.2,29.55,West,272,0.0,0.0,27,0.00,CLR,,0.04,WeatherDisplay:10.37,2013-02-28 19:26:00,
2013-02-28 14:31:00,46.6,14.3,29.55,NW,306,2.3,0.0,27,0.00,CLR,,0.04,WeatherDisplay:10.37,2013-02-28 19:31:00,
2013-02-28 14:36:00,47.3,15.0,29.55,NNE,17,3.5,0.0,27,0.00,CLR,,0.04,WeatherDisplay:10.37,2013-02-28 19:36:00,
2013-02-28 14:41:00,48.9,15.5,29.55,NNE,17,2.3,0.0,26,0.00,CLR,,0.04,WeatherDisplay:10.37,2013-02-28 19:41:00,
2013-02-28 14:46:00,48.4,15.0,29.55,WSW,252,4.6,4.6,26,0.00,CLR,,0.04,WeatherDisplay:10.37,2013-02-28 19:46:00,
2013-02-28 14:51:00,48.7,15.3,29.55,NNE,21,2.3,0.0,26,0.00,CLR,,0.04,WeatherDisplay:10.37,2013-02-28 19:51:00,
2013-02-28 14:56:00,45.7,13.6,29.51,WNW,302,3.5,0.0,27,0.00,CLR,,0.04,WeatherDisplay:10.37,2013-02-28 19:56:00,
2013-02-28 15:01:00,46.2,14.0,29.51,SW,231,5.8,5.8,27,0.00,CLR,,0.04,WeatherDisplay:10.37,2013-02-28 20:01:00,
2013-02-28 15:06:00,45.9,13.7,29.51,WNW,299,4.9,4.9,27,0.00,CLR,,0.04,WeatherDisplay:10.37,2013-02-28 20:06:00,
2013-02-28 15:11:00,45.1,13.1,29.51,West,264,2.3,2.3,27,0.00,CLR,,0.04,WeatherDisplay:10.37,2013-02-28 20:11:00,
2013-02-28 15:16:00,45.3,13.2,29.51,NNW,330,3.5,3.5,27,0.00,CLR,,0.04,WeatherDisplay:10.37,2013-02-28 20:16:00,
2013-02-28 15:21:00,45.9,13.7,29.51,WSW,256,2.3,0.0,27,0.00,CLR,,0.04,WeatherDisplay:10.37,2013-02-28 20:21:00,
2013-02-28 15:26:00,46.0,16.3,29.51,NW,309,3.5,3.5,30,0.00,CLR,,0.04,WeatherDisplay:10.37,2013-02-28 20:26:00,
2013-02-28 15:31:00,49.8,16.3,29.51,West,277,6.3,6.3,26,0.00,CLR,,0.04,WeatherDisplay:10.37,2013-02-28 20:31:00,
2013-02-28 15:36:00,46.9,14.6,29.51,West,281,5.8,5.8,27,0.00,CLR,,0.04,WeatherDisplay:10.37,2013-02-28 20:36:00,
2013-02-28 15:41:00,48.0,15.6,29.51,WNW,294,5.8,5.8,27,0.00,CLR,,0.04,WeatherDisplay:10.37,2013-02-28 20:41:00,
2013-02-28 15:46:00,46.2,14.0,29.51,WNW,284,0.0,0.0,27,0.00,CLR,,0.04,WeatherDisplay:10.37,2013-02-28 20:46:00,
2013-02-28 15:51:00,47.1,14.8,29.51,North,357,2.3,0.0,27,0.00,CLR,,0.04,WeatherDisplay:10.37,2013-02-28 20:51:00,
2013-02-28 15:56:00,45.3,13.2,29.51,North,353,2.3,2.3,27,0.00,CLR,,0.04,WeatherDisplay:10.37,2013-02-28 20:56:00,
2013-02-28 16:01:00,44.8,12.8,29.51,WNW,290,2.3,2.7,27,0.00,CLR,,0.04,WeatherDisplay:10.37,2013-02-28 21:01:00,
2013-02-28 16:06:00,46.9,14.6,29.51,WNW,298,3.5,3.6,27,0.00,CLR,,0.04,WeatherDisplay:10.37,2013-02-28 21:06:00,
2013-02-28 16:11:00,45.9,13.7,29.51,WNW,298,2.3,2.7,27,0.00,CLR,,0.04,WeatherDisplay:10.37,2013-02-28 21:11:00,
2013-02-28 16:16:00,44.8,12.8,29.51,North,353,0.0,2.2,27,0.00,CLR,,0.04,WeatherDisplay:10.37,2013-02-28 21:16:00,
2013-02-28 16:21:00,44.2,13.1,29.51,North,353,3.5,3.5,28,0.00,CLR,,0.04,WeatherDisplay:10.37,2013-02-28 21:21:00,
2013-02-28 16:26:00,43.7,12.7,29.51,North,353,2.3,0.0,28,0.00,CLR,,0.04,WeatherDisplay:10.37,2013-02-28 21:26:00,
2013-02-28 16:31:00,43.5,12.5,29.51,North,353,2.3,0.0,28,0.00,CLR,,0.04,WeatherDisplay:10.37,2013-02-28 21:31:00,
2013-02-28 16:36:00,43.5,12.5,29.51,North,353,2.3,0.0,28,0.00,CLR,,0.04,WeatherDisplay:10.37,2013-02-28 21:36:00,
2013-02-28 16:41:00,43.2,12.2,29.51,West,264,3.5,3.5,28,0.00,CLR,,0.04,WeatherDisplay:10.37,2013-02-28 21:41:00,
2013-02-28 16:46:00,42.8,11.9,29.51,WNW,291,0.0,0.0,28,0.00,CLR,,0.04,WeatherDisplay:10.37,2013-02-28 21:46:00,
2013-02-28 16:51:00,42.4,11.6,29.51,WNW,299,0.0,0.0,28,0.00,CLR,,0.04,WeatherDisplay:10.37,2013-02-28 21:51:00,
2013-02-28 16:56:00,42.1,11.3,29.51,WNW,299,0.0,0.0,28,0.00,CLR,,0.04,WeatherDisplay:10.37,2013-02-28 21:56:00,
2013-02-28 17:01:00,41.5,10.8,29.51,WNW,299,0.0,0.0,28,0.00,CLR,,0.04,WeatherDisplay:10.37,2013-02-28 22:01:00,
2013-02-28 17:06:00,41.0,10.3,29.51,WNW,299,0.0,0.0,28,0.00,CLR,,0.04,WeatherDisplay:10.37,2013-02-28 22:06:00,
2013-02-28 17:11:00,40.8,10.2,29.51,WNW,299,2.3,0.0,28,0.00,CLR,,0.04,WeatherDisplay:10.37,2013-02-28 22:11:00,
2013-02-28 17:16:00,40.5,12.2,29.51,West,260,3.5,0.0,31,0.00,CLR,,0.04,WeatherDisplay:10.37,2013-02-28 22:16:00,
2013-02-28 17:21:00,40.8,12.5,29.51,NW,305,3.5,0.0,31,0.00,CLR,,0.04,WeatherDisplay:10.37,2013-02-28 22:21:00,
2013-02-28 17:26:00,40.5,12.2,29.51,NW,306,4.6,4.6,31,0.00,CLR,,0.04,WeatherDisplay:10.37,2013-02-28 22:26:00,
2013-02-28 17:31:00,39.9,11.7,29.51,NW,306,0.0,0.0,31,0.00,CLR,,0.04,WeatherDisplay:10.37,2013-02-28 22:31:00,
2013-02-28 17:36:00,39.6,11.4,29.51,NW,306,0.0,0.0,31,0.00,CLR,,0.04,WeatherDisplay:10.37,2013-02-28 22:36:00,
2013-02-28 17:41:00,39.2,11.0,29.51,NW,306,0.0,0.0,31,0.00,CLR,,0.04,WeatherDisplay:10.37,2013-02-28 22:41:00,
2013-02-28 17:46:00,38.8,10.7,29.51,NW,306,0.0,0.0,31,0.00,CLR,,0.04,WeatherDisplay:10.37,2013-02-28 22:46:00,
2013-02-28 17:51:00,39.0,10.9,29.51,NW,306,0.0,0.0,31,0.00,CLR,,0.04,WeatherDisplay:10.37,2013-02-28 22:51:00,
2013-02-28 17:56:00,39.2,11.0,29.55,NW,306,0.0,0.0,31,0.00,CLR,,0.04,WeatherDisplay:10.37,2013-02-28 22:56:00,
2013-02-28 18:01:00,39.0,10.9,29.55,NW,306,0.0,0.0,31,0.00,CLR,,0.04,WeatherDisplay:10.37,2013-02-28 23:01:00,
2013-02-28 18:06:00,38.7,10.6,29.55,NW,306,0.0,0.0,31,0.00,CLR,,0.04,WeatherDisplay:10.37,2013-02-28 23:06:00,
2013-02-28 18:11:00,38.7,10.6,29.55,NW,306,0.0,0.0,31,0.00,CLR,,0.04,WeatherDisplay:10.37,2013-02-28 23:11:00,
2013-02-28 18:16:00,38.7,10.6,29.55,NW,306,0.0,0.0,31,0.00,CLR,,0.04,WeatherDisplay:10.37,2013-02-28 23:16:00,
2013-02-28 18:21:00,39.0,10.9,29.55,NW,306,0.0,0.0,31,0.00,CLR,,0.04,WeatherDisplay:10.37,2013-02-28 23:21:00,
2013-02-28 18:26:00,39.2,11.0,29.55,NW,306,0.0,0.0,31,0.00,CLR,,0.04,WeatherDisplay:10.37,2013-02-28 23:26:00,
2013-02-28 18:31:00,39.4,11.2,29.55,NW,306,0.0,0.0,31,0.00,CLR,,0.04,WeatherDisplay:10.37,2013-02-28 23:31:00,
2013-02-28 18:36:00,39.2,11.0,29.55,NW,306,0.0,0.0,31,0.00,CLR,,0.04,WeatherDisplay:10.37,2013-02-28 23:36:00,
2013-02-28 18:41:00,38.8,12.8,29.55,NW,306,0.0,0.0,34,0.00,CLR,,0.04,WeatherDisplay:10.37,2013-02-28 23:41:00,
2013-02-28 18:46:00,39.0,10.9,29.55,NW,306,0.0,0.0,31,0.00,CLR,,0.04,WeatherDisplay:10.37,2013-02-28 23:46:00,
2013-02-28 18:51:00,38.8,10.7,29.55,NW,306,0.0,0.0,31,0.00,CLR,,0.04,WeatherDisplay:10.37,2013-02-28 23:51:00,
2013-02-28 18:56:00,38.7,10.6,29.55,NW,306,0.0,0.0,31,0.00,CLR,,0.04,WeatherDisplay:10.37,2013-02-28 23:56:00,
2013-02-28 19:01:00,38.7,10.6,29.55,NW,306,0.0,0.0,31,0.00,CLR,,0.04,WeatherDisplay:10.37,2013-03-01 00:01:00,
2013-02-28 19:06:00,38.7,10.6,29.55,NW,306,0.0,0.0,31,0.00,CLR,,0.04,WeatherDisplay:10.37,2013-03-01 00:06:00,
2013-02-28 19:11:00,38.5,12.5,29.55,NW,306,0.0,0.0,34,0.00,CLR,,0.04,WeatherDisplay:10.37,2013-03-01 00:11:00,
2013-02-28 19:16:00,38.5,12.5,29.55,NW,306,0.0,0.0,34,0.00,CLR,,0.04,WeatherDisplay:10.37,2013-03-01 00:16:00,
2013-02-28 19:21:00,38.5,12.5,29.55,NW,306,0.0,0.0,34,0.00,CLR,,0.04,WeatherDisplay:10.37,2013-03-01 00:21:00,
2013-02-28 19:26:00,38.3,13.6,29.51,NW,306,0.0,0.0,36,0.00,CLR,,0.04,WeatherDisplay:10.37,2013-03-01 00:26:00,
2013-02-28 19:31:00,38.3,12.3,29.51,NW,306,0.0,0.0,34,0.00,CLR,,0.04,WeatherDisplay:10.37,2013-03-01 00:31:00,
2013-02-28 19:36:00,38.1,12.2,29.51,NW,306,0.0,0.0,34,0.00,CLR,,0.04,WeatherDisplay:10.37,2013-03-01 00:36:00,
2013-02-28 19:41:00,38.1,12.2,29.51,NW,306,0.0,0.0,34,0.00,CLR,,0.04,WeatherDisplay:10.37,2013-03-01 00:41:00,
2013-02-28 19:46:00,37.9,13.3,29.51,NW,306,0.0,0.0,36,0.00,CLR,,0.04,WeatherDisplay:10.37,2013-03-01 00:46:00,
2013-02-28 19:51:00,38.3,15.5,29.51,NW,306,0.0,0.0,39,0.00,CLR,,0.04,WeatherDisplay:10.37,2013-03-01 00:51:00,
2013-02-28 19:56:00,37.9,15.1,29.55,NW,306,0.0,0.0,39,0.00,CLR,,0.04,WeatherDisplay:10.37,2013-03-01 00:56:00,
2013-02-28 20:01:00,38.1,15.3,29.55,NW,306,0.0,0.0,39,0.00,CLR,,0.04,WeatherDisplay:10.37,2013-03-01 01:01:00,
2013-02-28 20:06:00,37.9,15.1,29.55,NW,306,0.0,0.0,39,0.00,CLR,,0.04,WeatherDisplay:10.37,2013-03-01 01:06:00,
2013-02-28 20:11:00,37.8,15.0,29.55,NW,306,0.0,0.0,39,0.00,CLR,,0.04,WeatherDisplay:10.37,2013-03-01 01:11:00,
2013-02-28 20:16:00,37.8,15.0,29.55,NW,306,0.0,0.0,39,0.00,CLR,,0.04,WeatherDisplay:10.37,2013-03-01 01:16:00,
2013-02-28 20:21:00,37.8,15.0,29.55,NW,306,0.0,0.0,39,0.00,CLR,,0.04,WeatherDisplay:10.37,2013-03-01 01:21:00,
2013-02-28 20:26:00,37.9,15.7,29.51,NW,306,0.0,0.0,40,0.00,CLR,,0.04,WeatherDisplay:10.37,2013-03-01 01:26:00,
2013-02-28 20:31:00,37.9,15.1,29.51,NW,306,0.0,0.0,39,0.00,CLR,,0.04,WeatherDisplay:10.37,2013-03-01 01:31:00,
2013-02-28 20:36:00,37.6,14.8,29.51,NW,306,0.0,0.0,39,0.00,CLR,,0.04,WeatherDisplay:10.37,2013-03-01 01:36:00,
2013-02-28 20:41:00,37.6,15.4,29.55,NW,306,0.0,0.0,40,0.00,CLR,,0.04,WeatherDisplay:10.37,2013-03-01 01:41:00,
2013-02-28 20:46:00,37.6,16.0,29.55,NW,306,0.0,0.0,41,0.00,CLR,,0.04,WeatherDisplay:10.37,2013-03-01 01:46:00,
2013-02-28 20:51:00,37.6,15.4,29.55,NW,306,0.0,0.0,40,0.00,CLR,,0.04,WeatherDisplay:10.37,2013-03-01 01:51:00,
2013-02-28 20:56:00,37.2,15.1,29.55,NW,306,0.0,0.0,40,0.00,CLR,,0.04,WeatherDisplay:10.37,2013-03-01 01:56:00,
2013-02-28 21:01:00,36.9,15.3,29.55,NW,306,0.0,0.0,41,0.00,CLR,,0.04,WeatherDisplay:10.37,2013-03-01 02:01:00,
2013-02-28 21:06:00,36.9,15.9,29.55,NW,306,0.0,0.0,42,0.00,CLR,,0.04,WeatherDisplay:10.37,2013-03-01 02:06:00,
2013-02-28 21:11:00,36.7,16.3,29.55,NW,306,0.0,0.0,43,0.00,CLR,,0.04,WeatherDisplay:10.37,2013-03-01 02:11:00,
2013-02-28 21:16:00,36.9,17.5,29.55,NW,306,0.0,0.0,45,0.00,CLR,,0.04,WeatherDisplay:10.37,2013-03-01 02:16:00,
2013-02-28 21:21:00,36.9,17.5,29.55,NW,306,0.0,0.0,45,0.00,CLR,,0.04,WeatherDisplay:10.37,2013-03-01 02:21:00,
2013-02-28 21:26:00,37.0,18.1,29.55,NW,306,0.0,0.0,46,0.00,CLR,,0.04,WeatherDisplay:10.37,2013-03-01 02:26:00,
2013-02-28 21:31:00,36.9,18.0,29.55,NW,306,0.0,0.0,46,0.00,CLR,,0.04,WeatherDisplay:10.37,2013-03-01 02:31:00,
2013-02-28 21:36:00,36.9,17.5,29.55,NW,306,0.0,0.0,45,0.00,CLR,,0.04,WeatherDisplay:10.37,2013-03-01 02:36:00,
2013-02-28 21:41:00,36.9,19.0,29.55,NE,50,0.0,0.0,48,0.00,CLR,,0.04,WeatherDisplay:10.37,2013-03-01 02:41:00,
2013-02-28 21:46:00,36.5,18.2,29.55,NE,50,0.0,0.0,47,0.00,CLR,,0.04,WeatherDisplay:10.37,2013-03-01 02:46:00,
2013-02-28 21:51:00,36.5,18.6,29.55,SE,125,0.0,0.0,48,0.00,CLR,,0.04,WeatherDisplay:10.37,2013-03-01 02:51:00,
2013-02-28 21:56:00,36.5,18.6,29.55,SE,125,0.0,0.0,48,0.00,CLR,,0.04,WeatherDisplay:10.37,2013-03-01 02:56:00,
2013-02-28 22:01:00,36.5,18.6,29.55,WSW,238,0.0,0.0,48,0.00,CLR,,0.04,WeatherDisplay:10.37,2013-03-01 03:01:00,
2013-02-28 22:06:00,36.9,19.5,29.55,WSW,238,0.0,0.0,49,0.00,CLR,,0.04,WeatherDisplay:10.37,2013-03-01 03:06:00,
2013-02-28 22:11:00,37.0,20.1,29.55,WSW,239,0.0,0.0,50,0.00,CLR,,0.04,WeatherDisplay:10.37,2013-03-01 03:11:00,
2013-02-28 22:16:00,37.0,19.6,29.55,WSW,238,0.0,0.0,49,0.00,CLR,,0.04,WeatherDisplay:10.37,2013-03-01 03:16:00,
2013-02-28 22:21:00,37.0,19.6,29.55,WSW,238,0.0,0.0,49,0.00,CLR,,0.04,WeatherDisplay:10.37,2013-03-01 03:21:00,
2013-02-28 22:26:00,37.2,20.3,29.55,ENE,69,0.0,0.0,50,0.00,CLR,,0.04,WeatherDisplay:10.37,2013-03-01 03:26:00,
2013-02-28 22:31:00,37.2,20.3,29.55,ENE,69,0.0,0.0,50,0.00,CLR,,0.04,WeatherDisplay:10.37,2013-03-01 03:31:00,
2013-02-28 22:36:00,37.0,20.1,29.51,ENE,69,0.0,0.0,50,0.00,CLR,,0.04,WeatherDisplay:10.37,2013-03-01 03:36:00,
2013-02-28 22:41:00,36.9,19.5,29.51,East,81,0.0,0.0,49,0.00,CLR,,0.04,WeatherDisplay:10.37,2013-03-01 03:41:00,
2013-02-28 22:46:00,36.7,19.8,29.51,East,81,0.0,0.0,50,0.00,CLR,,0.04,WeatherDisplay:10.37,2013-03-01 03:46:00,
2013-02-28 22:51:00,36.9,19.9,29.51,East,81,0.0,0.0,50,0.00,CLR,,0.04,WeatherDisplay:10.37,2013-03-01 03:51:00,
2013-02-28 22:56:00,37.0,20.1,29.51,East,81,0.0,0.0,50,0.00,CLR,,0.04,WeatherDisplay:10.37,2013-03-01 03:56:00,
2013-02-28 23:01:00,37.0,20.1,29.51,East,81,0.0,0.0,50,0.00,CLR,,0.04,WeatherDisplay:10.37,2013-03-01 04:01:00,
2013-02-28 23:06:00,36.9,19.9,29.51,East,81,0.0,0.0,50,0.00,CLR,,0.04,WeatherDisplay:10.37,2013-03-01 04:06:00,
2013-02-28 23:11:00,36.9,19.9,29.51,East,100,0.0,0.0,50,0.00,CLR,,0.04,WeatherDisplay:10.37,2013-03-01 04:11:00,
2013-02-28 23:16:00,36.9,19.9,29.51,East,100,0.0,0.0,50,0.00,CLR,,0.04,WeatherDisplay:10.37,2013-03-01 04:16:00,
2013-02-28 23:21:00,36.9,19.9,29.51,East,100,0.0,0.0,50,0.00,CLR,,0.04,WeatherDisplay:10.37,2013-03-01 04:21:00,
2013-02-28 23:26:00,36.9,19.9,29.51,East,100,0.0,0.0,50,0.00,CLR,,0.04,WeatherDisplay:10.37,2013-03-01 04:26:00,
2013-02-28 23:31:00,36.9,19.9,29.51,ESE,111,0.0,0.0,50,0.00,CLR,,0.04,WeatherDisplay:10.37,2013-03-01 04:31:00,
2013-02-28 23:36:00,36.9,19.9,29.51,ESE,111,0.0,0.0,50,0.00,CLR,,0.04,WeatherDisplay:10.37,2013-03-01 04:36:00,
2013-02-28 23:41:00,36.9,19.9,29.51,ESE,111,0.0,0.0,50,0.00,CLR,,0.04,WeatherDisplay:10.37,2013-03-01 04:41:00,
2013-02-28 23:46:00,36.5,19.1,29.51,ENE,63,0.0,0.0,49,0.00,CLR,,0.04,WeatherDisplay:10.37,2013-03-01 04:46:00,
2013-02-28 23:51:00,36.3,18.0,29.51,SSE,159,0.0,0.0,47,0.00,CLR,,0.04,WeatherDisplay:10.37,2013-03-01 04:51:00,
2013-02-28 23:56:00,36.3,18.0,29.51,SSE,159,0.0,0.0,47,0.00,CLR,,0.04,WeatherDisplay:10.37,2013-03-01 04:56:00,